sensor_id;sensor_type;location;lat;lon;timestamp;P1;durP1;ratioP1;P2;durP2;ratioP2
61572;SDS011;47465;43.094;12.434;2024-02-15T00:01:39;6.10;;;2.88;;
61572;SDS011;47465;43.094;12.434;2024-02-15T00:04:05;4.20;;;2.50;;
61572;SDS011;47465;43.094;12.434;2024-02-15T00:06:33;5.35;;;2.60;;
61572;SDS011;47465;43.094;12.434;2024-02-15T00:09:00;4.05;;;2.58;;
61572;SDS011;47465;43.094;12.434;2024-02-15T00:11:26;5.53;;;2.40;;
61572;SDS011;47465;43.094;12.434;2024-02-15T00:13:52;6.03;;;2.65;;
61572;SDS011;47465;43.094;12.434;2024-02-15T00:16:18;6.30;;;3.60;;
61572;SDS011;47465;43.094;12.434;2024-02-15T00:18:44;7.38;;;3.72;;
61572;SDS011;47465;43.094;12.434;2024-02-15T00:21:10;7.63;;;3.35;;
61572;SDS011;47465;43.094;12.434;2024-02-15T00:23:38;5.88;;;3.05;;
61572;SDS011;47465;43.094;12.434;2024-02-15T00:28:32;7.03;;;3.05;;
61572;SDS011;47465;43.094;12.434;2024-02-15T00:30:59;4.50;;;2.78;;
61572;SDS011;47465;43.094;12.434;2024-02-15T00:33:25;3.60;;;2.40;;
61572;SDS011;47465;43.094;12.434;2024-02-15T00:35:51;6.18;;;3.20;;
61572;SDS011;47465;43.094;12.434;2024-02-15T00:38:17;11.32;;;3.40;;
61572;SDS011;47465;43.094;12.434;2024-02-15T00:40:46;7.90;;;2.72;;
61572;SDS011;47465;43.094;12.434;2024-02-15T00:43:12;7.20;;;3.30;;
61572;SDS011;47465;43.094;12.434;2024-02-15T00:45:42;9.50;;;5.13;;
61572;SDS011;47465;43.094;12.434;2024-02-15T00:48:08;8.32;;;4.15;;
61572;SDS011;47465;43.094;12.434;2024-02-15T00:50:35;10.80;;;4.25;;
61572;SDS011;47465;43.094;12.434;2024-02-15T00:53:01;8.70;;;4.72;;
61572;SDS011;47465;43.094;12.434;2024-02-15T00:55:27;8.60;;;4.25;;
61572;SDS011;47465;43.094;12.434;2024-02-15T00:57:54;9.10;;;4.53;;
61572;SDS011;47465;43.094;12.434;2024-02-15T01:00:21;10.80;;;4.47;;
61572;SDS011;47465;43.094;12.434;2024-02-15T01:02:47;9.60;;;4.38;;
61572;SDS011;47465;43.094;12.434;2024-02-15T01:05:13;7.40;;;3.85;;
61572;SDS011;47465;43.094;12.434;2024-02-15T01:07:46;8.43;;;4.07;;
61572;SDS011;47465;43.094;12.434;2024-02-15T01:10:14;9.50;;;4.00;;
61572;SDS011;47465;43.094;12.434;2024-02-15T01:12:40;7.25;;;4.10;;
61572;SDS011;47465;43.094;12.434;2024-02-15T01:15:08;7.93;;;4.03;;
61572;SDS011;47465;43.094;12.434;2024-02-15T01:17:34;6.75;;;3.47;;
61572;SDS011;47465;43.094;12.434;2024-02-15T01:20:00;6.90;;;3.92;;
61572;SDS011;47465;43.094;12.434;2024-02-15T01:22:27;7.00;;;2.92;;
61572;SDS011;47465;43.094;12.434;2024-02-15T01:24:54;6.13;;;3.25;;
61572;SDS011;47465;43.094;12.434;2024-02-15T01:27:23;6.38;;;3.28;;
61572;SDS011;47465;43.094;12.434;2024-02-15T01:29:49;6.20;;;3.35;;
61572;SDS011;47465;43.094;12.434;2024-02-15T01:32:16;7.35;;;3.67;;
61572;SDS011;47465;43.094;12.434;2024-02-15T01:34:42;5.80;;;3.47;;
61572;SDS011;47465;43.094;12.434;2024-02-15T01:37:08;9.23;;;4.30;;
61572;SDS011;47465;43.094;12.434;2024-02-15T01:39:34;6.20;;;4.10;;
61572;SDS011;47465;43.094;12.434;2024-02-15T01:42:00;9.77;;;4.70;;
61572;SDS011;47465;43.094;12.434;2024-02-15T01:44:28;8.43;;;4.20;;
61572;SDS011;47465;43.094;12.434;2024-02-15T01:46:54;11.35;;;4.40;;
61572;SDS011;47465;43.094;12.434;2024-02-15T01:49:22;10.40;;;5.60;;
61572;SDS011;47465;43.094;12.434;2024-02-15T01:51:49;6.68;;;3.33;;
61572;SDS011;47465;43.094;12.434;2024-02-15T01:54:16;9.73;;;3.60;;
61572;SDS011;47465;43.094;12.434;2024-02-15T01:56:42;6.15;;;3.72;;
61572;SDS011;47465;43.094;12.434;2024-02-15T01:59:09;5.05;;;2.95;;
61572;SDS011;47465;43.094;12.434;2024-02-15T02:01:36;6.63;;;3.05;;
61572;SDS011;47465;43.094;12.434;2024-02-15T02:04:04;5.07;;;2.53;;
61572;SDS011;47465;43.094;12.434;2024-02-15T02:06:31;6.00;;;3.33;;
61572;SDS011;47465;43.094;12.434;2024-02-15T02:08:57;7.05;;;3.33;;
61572;SDS011;47465;43.094;12.434;2024-02-15T02:11:23;7.13;;;3.22;;
61572;SDS011;47465;43.094;12.434;2024-02-15T02:13:51;9.05;;;3.63;;
61572;SDS011;47465;43.094;12.434;2024-02-15T02:16:26;7.93;;;4.00;;
61572;SDS011;47465;43.094;12.434;2024-02-15T02:18:54;6.03;;;3.25;;
61572;SDS011;47465;43.094;12.434;2024-02-15T02:21:20;6.50;;;3.03;;
61572;SDS011;47465;43.094;12.434;2024-02-15T02:23:48;8.48;;;3.88;;
61572;SDS011;47465;43.094;12.434;2024-02-15T02:26:20;7.78;;;3.80;;
61572;SDS011;47465;43.094;12.434;2024-02-15T02:28:46;8.32;;;3.95;;
61572;SDS011;47465;43.094;12.434;2024-02-15T02:31:12;6.88;;;3.42;;
61572;SDS011;47465;43.094;12.434;2024-02-15T02:33:39;6.57;;;3.05;;
61572;SDS011;47465;43.094;12.434;2024-02-15T02:36:06;5.47;;;3.03;;
61572;SDS011;47465;43.094;12.434;2024-02-15T02:38:35;6.93;;;3.80;;
61572;SDS011;47465;43.094;12.434;2024-02-15T02:41:03;8.25;;;3.88;;
61572;SDS011;47465;43.094;12.434;2024-02-15T02:43:30;8.95;;;3.47;;
61572;SDS011;47465;43.094;12.434;2024-02-15T02:45:57;6.35;;;3.28;;
61572;SDS011;47465;43.094;12.434;2024-02-15T02:48:23;7.28;;;3.75;;
61572;SDS011;47465;43.094;12.434;2024-02-15T02:50:49;7.95;;;3.50;;
61572;SDS011;47465;43.094;12.434;2024-02-15T02:53:15;4.97;;;3.05;;
61572;SDS011;47465;43.094;12.434;2024-02-15T02:55:41;6.00;;;3.47;;
61572;SDS011;47465;43.094;12.434;2024-02-15T02:58:08;8.52;;;4.43;;
61572;SDS011;47465;43.094;12.434;2024-02-15T03:00:35;6.65;;;3.05;;
61572;SDS011;47465;43.094;12.434;2024-02-15T03:03:02;4.55;;;2.40;;
61572;SDS011;47465;43.094;12.434;2024-02-15T03:05:30;6.00;;;3.63;;
61572;SDS011;47465;43.094;12.434;2024-02-15T03:07:56;5.88;;;3.53;;
61572;SDS011;47465;43.094;12.434;2024-02-15T03:10:29;7.95;;;3.58;;
61572;SDS011;47465;43.094;12.434;2024-02-15T03:12:55;6.95;;;3.63;;
61572;SDS011;47465;43.094;12.434;2024-02-15T03:15:22;5.20;;;2.78;;
61572;SDS011;47465;43.094;12.434;2024-02-15T03:17:50;6.47;;;3.35;;
61572;SDS011;47465;43.094;12.434;2024-02-15T03:20:17;9.23;;;3.60;;
61572;SDS011;47465;43.094;12.434;2024-02-15T03:22:50;7.70;;;3.72;;
61572;SDS011;47465;43.094;12.434;2024-02-15T03:25:18;4.70;;;3.00;;
61572;SDS011;47465;43.094;12.434;2024-02-15T03:27:44;7.03;;;3.08;;
61572;SDS011;47465;43.094;12.434;2024-02-15T03:30:10;7.53;;;3.65;;
61572;SDS011;47465;43.094;12.434;2024-02-15T03:32:36;6.30;;;3.30;;
61572;SDS011;47465;43.094;12.434;2024-02-15T03:35:04;8.32;;;3.58;;
61572;SDS011;47465;43.094;12.434;2024-02-15T03:37:30;6.30;;;3.10;;
61572;SDS011;47465;43.094;12.434;2024-02-15T03:39:59;9.38;;;3.08;;
61572;SDS011;47465;43.094;12.434;2024-02-15T03:42:25;5.00;;;3.20;;
61572;SDS011;47465;43.094;12.434;2024-02-15T03:44:51;6.85;;;3.38;;
61572;SDS011;47465;43.094;12.434;2024-02-15T03:47:19;7.20;;;3.25;;
61572;SDS011;47465;43.094;12.434;2024-02-15T03:49:45;6.80;;;3.25;;
61572;SDS011;47465;43.094;12.434;2024-02-15T03:52:13;7.82;;;3.53;;
61572;SDS011;47465;43.094;12.434;2024-02-15T03:54:39;5.32;;;3.35;;
61572;SDS011;47465;43.094;12.434;2024-02-15T03:57:08;5.63;;;2.67;;
61572;SDS011;47465;43.094;12.434;2024-02-15T03:59:36;8.52;;;3.72;;
61572;SDS011;47465;43.094;12.434;2024-02-15T04:02:03;6.82;;;3.40;;
61572;SDS011;47465;43.094;12.434;2024-02-15T04:04:34;5.32;;;3.83;;
61572;SDS011;47465;43.094;12.434;2024-02-15T04:07:01;5.40;;;3.33;;
61572;SDS011;47465;43.094;12.434;2024-02-15T04:09:30;7.50;;;3.47;;
61572;SDS011;47465;43.094;12.434;2024-02-15T04:11:56;8.02;;;3.03;;
61572;SDS011;47465;43.094;12.434;2024-02-15T04:14:22;7.20;;;3.58;;
61572;SDS011;47465;43.094;12.434;2024-02-15T04:16:49;8.10;;;3.85;;
61572;SDS011;47465;43.094;12.434;2024-02-15T04:19:15;6.82;;;2.72;;
61572;SDS011;47465;43.094;12.434;2024-02-15T04:21:41;5.10;;;3.33;;
61572;SDS011;47465;43.094;12.434;2024-02-15T04:24:09;5.20;;;2.90;;
61572;SDS011;47465;43.094;12.434;2024-02-15T04:26:37;8.27;;;4.22;;
61572;SDS011;47465;43.094;12.434;2024-02-15T04:29:03;6.70;;;3.17;;
61572;SDS011;47465;43.094;12.434;2024-02-15T04:31:29;6.80;;;3.25;;
61572;SDS011;47465;43.094;12.434;2024-02-15T04:33:56;8.13;;;3.47;;
61572;SDS011;47465;43.094;12.434;2024-02-15T04:36:24;6.68;;;3.40;;
61572;SDS011;47465;43.094;12.434;2024-02-15T04:38:54;5.80;;;3.15;;
61572;SDS011;47465;43.094;12.434;2024-02-15T04:41:26;5.90;;;2.88;;
61572;SDS011;47465;43.094;12.434;2024-02-15T04:43:54;6.43;;;3.65;;
61572;SDS011;47465;43.094;12.434;2024-02-15T04:46:20;5.53;;;3.13;;
61572;SDS011;47465;43.094;12.434;2024-02-15T04:48:47;5.55;;;3.45;;
61572;SDS011;47465;43.094;12.434;2024-02-15T04:51:15;6.60;;;3.50;;
61572;SDS011;47465;43.094;12.434;2024-02-15T04:53:42;7.38;;;3.25;;
61572;SDS011;47465;43.094;12.434;2024-02-15T04:56:08;9.27;;;3.55;;
61572;SDS011;47465;43.094;12.434;2024-02-15T04:58:39;7.93;;;4.00;;
61572;SDS011;47465;43.094;12.434;2024-02-15T05:01:15;7.20;;;3.45;;
61572;SDS011;47465;43.094;12.434;2024-02-15T05:03:41;9.40;;;4.30;;
61572;SDS011;47465;43.094;12.434;2024-02-15T05:06:07;6.20;;;3.10;;
61572;SDS011;47465;43.094;12.434;2024-02-15T05:08:34;7.38;;;4.28;;
61572;SDS011;47465;43.094;12.434;2024-02-15T05:11:07;7.40;;;3.78;;
61572;SDS011;47465;43.094;12.434;2024-02-15T05:13:38;7.70;;;2.92;;
61572;SDS011;47465;43.094;12.434;2024-02-15T05:16:04;6.45;;;3.13;;
61572;SDS011;47465;43.094;12.434;2024-02-15T05:18:32;4.75;;;2.72;;
61572;SDS011;47465;43.094;12.434;2024-02-15T05:21:01;7.05;;;3.90;;
61572;SDS011;47465;43.094;12.434;2024-02-15T05:23:28;6.43;;;3.10;;
61572;SDS011;47465;43.094;12.434;2024-02-15T05:25:55;5.68;;;3.03;;
61572;SDS011;47465;43.094;12.434;2024-02-15T05:28:21;4.13;;;2.78;;
61572;SDS011;47465;43.094;12.434;2024-02-15T05:31:07;6.70;;;3.30;;
61572;SDS011;47465;43.094;12.434;2024-02-15T05:33:37;9.80;;;4.32;;
61572;SDS011;47465;43.094;12.434;2024-02-15T05:36:09;8.25;;;3.92;;
61572;SDS011;47465;43.094;12.434;2024-02-15T05:38:36;12.23;;;5.22;;
61572;SDS011;47465;43.094;12.434;2024-02-15T05:41:02;7.88;;;3.92;;
61572;SDS011;47465;43.094;12.434;2024-02-15T05:43:28;7.18;;;5.32;;
61572;SDS011;47465;43.094;12.434;2024-02-15T05:45:55;10.48;;;3.70;;
61572;SDS011;47465;43.094;12.434;2024-02-15T05:48:24;6.05;;;3.15;;
61572;SDS011;47465;43.094;12.434;2024-02-15T05:50:51;9.15;;;4.05;;
61572;SDS011;47465;43.094;12.434;2024-02-15T05:53:19;8.05;;;4.40;;
61572;SDS011;47465;43.094;12.434;2024-02-15T05:55:45;7.47;;;3.55;;
61572;SDS011;47465;43.094;12.434;2024-02-15T05:58:14;7.38;;;4.30;;
61572;SDS011;47465;43.094;12.434;2024-02-15T06:00:41;9.88;;;4.32;;
61572;SDS011;47465;43.094;12.434;2024-02-15T06:03:07;6.82;;;4.13;;
61572;SDS011;47465;43.094;12.434;2024-02-15T06:05:35;8.48;;;4.35;;
61572;SDS011;47465;43.094;12.434;2024-02-15T06:08:03;12.90;;;5.07;;
61572;SDS011;47465;43.094;12.434;2024-02-15T06:10:29;9.27;;;4.25;;
61572;SDS011;47465;43.094;12.434;2024-02-15T06:12:56;8.82;;;4.35;;
61572;SDS011;47465;43.094;12.434;2024-02-15T06:15:23;6.40;;;4.30;;
61572;SDS011;47465;43.094;12.434;2024-02-15T06:17:50;8.57;;;4.45;;
61572;SDS011;47465;43.094;12.434;2024-02-15T06:20:16;8.50;;;4.03;;
61572;SDS011;47465;43.094;12.434;2024-02-15T06:22:43;10.73;;;4.65;;
61572;SDS011;47465;43.094;12.434;2024-02-15T06:25:10;7.88;;;4.28;;
61572;SDS011;47465;43.094;12.434;2024-02-15T06:27:36;7.20;;;4.38;;
61572;SDS011;47465;43.094;12.434;2024-02-15T06:30:06;8.60;;;4.00;;
61572;SDS011;47465;43.094;12.434;2024-02-15T06:33:09;9.50;;;3.97;;
61572;SDS011;47465;43.094;12.434;2024-02-15T06:36:03;7.78;;;3.85;;
61572;SDS011;47465;43.094;12.434;2024-02-15T06:49:52;12.85;;;5.55;;
61572;SDS011;47465;43.094;12.434;2024-02-15T06:52:19;13.43;;;5.90;;
61572;SDS011;47465;43.094;12.434;2024-02-15T06:54:45;12.18;;;7.03;;
61572;SDS011;47465;43.094;12.434;2024-02-15T06:57:12;13.68;;;5.10;;
61572;SDS011;47465;43.094;12.434;2024-02-15T06:59:38;11.93;;;5.43;;
61572;SDS011;47465;43.094;12.434;2024-02-15T07:02:05;11.65;;;5.32;;
61572;SDS011;47465;43.094;12.434;2024-02-15T07:04:33;12.82;;;5.85;;
61572;SDS011;47465;43.094;12.434;2024-02-15T07:07:00;9.05;;;5.60;;
61572;SDS011;47465;43.094;12.434;2024-02-15T07:09:28;12.93;;;6.90;;
61572;SDS011;47465;43.094;12.434;2024-02-15T07:11:54;12.05;;;6.40;;
61572;SDS011;47465;43.094;12.434;2024-02-15T07:14:20;10.02;;;5.38;;
61572;SDS011;47465;43.094;12.434;2024-02-15T07:16:46;10.15;;;6.10;;
61572;SDS011;47465;43.094;12.434;2024-02-15T07:19:13;14.65;;;5.72;;
61572;SDS011;47465;43.094;12.434;2024-02-15T07:21:40;11.25;;;6.38;;
61572;SDS011;47465;43.094;12.434;2024-02-15T07:24:13;13.00;;;5.43;;
61572;SDS011;47465;43.094;12.434;2024-02-15T07:26:40;11.05;;;5.32;;
61572;SDS011;47465;43.094;12.434;2024-02-15T07:29:06;11.00;;;6.22;;
61572;SDS011;47465;43.094;12.434;2024-02-15T07:31:33;12.50;;;5.72;;
61572;SDS011;47465;43.094;12.434;2024-02-15T07:33:59;10.80;;;6.22;;
61572;SDS011;47465;43.094;12.434;2024-02-15T07:36:25;12.13;;;5.40;;
61572;SDS011;47465;43.094;12.434;2024-02-15T07:38:52;12.00;;;6.03;;
61572;SDS011;47465;43.094;12.434;2024-02-15T07:41:21;9.10;;;4.93;;
61572;SDS011;47465;43.094;12.434;2024-02-15T07:43:47;11.43;;;5.78;;
61572;SDS011;47465;43.094;12.434;2024-02-15T07:46:14;7.63;;;5.53;;
61572;SDS011;47465;43.094;12.434;2024-02-15T07:48:42;6.40;;;3.38;;
61572;SDS011;47465;43.094;12.434;2024-02-15T07:51:11;7.55;;;4.10;;
61572;SDS011;47465;43.094;12.434;2024-02-15T07:53:37;7.65;;;3.95;;
61572;SDS011;47465;43.094;12.434;2024-02-15T07:56:05;10.77;;;4.55;;
61572;SDS011;47465;43.094;12.434;2024-02-15T07:58:33;9.32;;;4.38;;
61572;SDS011;47465;43.094;12.434;2024-02-15T08:08:06;6.40;;;3.28;;
61572;SDS011;47465;43.094;12.434;2024-02-15T08:10:45;5.32;;;2.58;;
61572;SDS011;47465;43.094;12.434;2024-02-15T08:13:37;9.77;;;3.30;;
61572;SDS011;47465;43.094;12.434;2024-02-15T08:16:04;6.43;;;3.67;;
61572;SDS011;47465;43.094;12.434;2024-02-15T08:21:24;7.43;;;3.53;;
61572;SDS011;47465;43.094;12.434;2024-02-15T08:24:00;9.32;;;3.80;;
61572;SDS011;47465;43.094;12.434;2024-02-15T08:26:38;9.20;;;4.70;;
61572;SDS011;47465;43.094;12.434;2024-02-15T08:29:18;15.98;;;7.65;;
61572;SDS011;47465;43.094;12.434;2024-02-15T08:31:47;13.88;;;7.35;;
61572;SDS011;47465;43.094;12.434;2024-02-15T08:34:14;10.32;;;4.97;;
61572;SDS011;47465;43.094;12.434;2024-02-15T08:36:40;5.88;;;3.90;;
61572;SDS011;47465;43.094;12.434;2024-02-15T08:39:07;8.90;;;4.65;;
61572;SDS011;47465;43.094;12.434;2024-02-15T08:41:37;7.97;;;4.28;;
61572;SDS011;47465;43.094;12.434;2024-02-15T08:44:04;8.43;;;4.72;;
61572;SDS011;47465;43.094;12.434;2024-02-15T08:46:36;7.05;;;4.05;;
61572;SDS011;47465;43.094;12.434;2024-02-15T08:49:02;9.55;;;4.43;;
61572;SDS011;47465;43.094;12.434;2024-02-15T08:51:28;13.93;;;4.18;;
61572;SDS011;47465;43.094;12.434;2024-02-15T08:53:55;5.07;;;3.60;;
61572;SDS011;47465;43.094;12.434;2024-02-15T08:56:21;7.95;;;4.05;;
61572;SDS011;47465;43.094;12.434;2024-02-15T08:59:14;6.72;;;3.72;;
61572;SDS011;47465;43.094;12.434;2024-02-15T09:01:45;7.50;;;4.45;;
61572;SDS011;47465;43.094;12.434;2024-02-15T09:04:16;7.28;;;3.97;;
61572;SDS011;47465;43.094;12.434;2024-02-15T09:06:49;7.78;;;4.28;;
61572;SDS011;47465;43.094;12.434;2024-02-15T09:09:21;5.55;;;2.97;;
61572;SDS011;47465;43.094;12.434;2024-02-15T09:12:06;5.40;;;3.10;;
61572;SDS011;47465;43.094;12.434;2024-02-15T09:14:43;7.30;;;3.28;;
61572;SDS011;47465;43.094;12.434;2024-02-15T09:17:15;8.25;;;4.43;;
61572;SDS011;47465;43.094;12.434;2024-02-15T09:19:41;8.32;;;4.03;;
61572;SDS011;47465;43.094;12.434;2024-02-15T09:22:08;7.90;;;4.15;;
61572;SDS011;47465;43.094;12.434;2024-02-15T09:24:34;6.82;;;4.55;;
61572;SDS011;47465;43.094;12.434;2024-02-15T09:27:00;8.10;;;5.07;;
61572;SDS011;47465;43.094;12.434;2024-02-15T09:29:26;8.32;;;4.50;;
61572;SDS011;47465;43.094;12.434;2024-02-15T09:31:55;7.85;;;4.45;;
61572;SDS011;47465;43.094;12.434;2024-02-15T09:34:22;9.07;;;5.20;;
61572;SDS011;47465;43.094;12.434;2024-02-15T09:36:49;7.45;;;4.68;;
61572;SDS011;47465;43.094;12.434;2024-02-15T09:39:15;9.45;;;4.80;;
61572;SDS011;47465;43.094;12.434;2024-02-15T09:41:42;12.68;;;5.78;;
61572;SDS011;47465;43.094;12.434;2024-02-15T09:44:09;9.57;;;4.75;;
61572;SDS011;47465;43.094;12.434;2024-02-15T09:46:36;7.85;;;5.18;;
61572;SDS011;47465;43.094;12.434;2024-02-15T09:49:08;11.73;;;5.63;;
61572;SDS011;47465;43.094;12.434;2024-02-15T09:51:36;12.15;;;5.50;;
61572;SDS011;47465;43.094;12.434;2024-02-15T09:54:03;11.27;;;5.70;;
61572;SDS011;47465;43.094;12.434;2024-02-15T09:56:38;9.65;;;5.97;;
61572;SDS011;47465;43.094;12.434;2024-02-15T09:59:07;9.57;;;5.38;;
61572;SDS011;47465;43.094;12.434;2024-02-15T10:01:33;10.63;;;5.88;;
61572;SDS011;47465;43.094;12.434;2024-02-15T10:04:01;9.38;;;6.38;;
61572;SDS011;47465;43.094;12.434;2024-02-15T10:06:32;11.60;;;5.50;;
61572;SDS011;47465;43.094;12.434;2024-02-15T10:11:56;14.50;;;7.15;;
61572;SDS011;47465;43.094;12.434;2024-02-15T10:14:24;11.45;;;6.28;;
61572;SDS011;47465;43.094;12.434;2024-02-15T10:16:51;9.45;;;6.32;;
61572;SDS011;47465;43.094;12.434;2024-02-15T10:19:19;11.15;;;6.63;;
61572;SDS011;47465;43.094;12.434;2024-02-15T10:21:53;16.35;;;7.25;;
61572;SDS011;47465;43.094;12.434;2024-02-15T10:24:21;11.90;;;6.90;;
61572;SDS011;47465;43.094;12.434;2024-02-15T10:26:51;10.13;;;6.03;;
61572;SDS011;47465;43.094;12.434;2024-02-15T10:29:26;11.15;;;6.10;;
61572;SDS011;47465;43.094;12.434;2024-02-15T10:31:53;8.98;;;5.70;;
61572;SDS011;47465;43.094;12.434;2024-02-15T10:34:19;10.07;;;5.10;;
61572;SDS011;47465;43.094;12.434;2024-02-15T10:36:46;9.95;;;5.60;;
61572;SDS011;47465;43.094;12.434;2024-02-15T10:39:12;9.43;;;5.45;;
61572;SDS011;47465;43.094;12.434;2024-02-15T10:41:43;8.60;;;5.10;;
61572;SDS011;47465;43.094;12.434;2024-02-15T10:44:14;7.22;;;5.00;;
61572;SDS011;47465;43.094;12.434;2024-02-15T10:46:42;9.90;;;5.18;;
61572;SDS011;47465;43.094;12.434;2024-02-15T10:49:09;9.80;;;5.68;;
61572;SDS011;47465;43.094;12.434;2024-02-15T10:51:36;7.88;;;5.15;;
61572;SDS011;47465;43.094;12.434;2024-02-15T10:54:08;9.80;;;5.40;;
61572;SDS011;47465;43.094;12.434;2024-02-15T10:56:41;13.30;;;5.65;;
61572;SDS011;47465;43.094;12.434;2024-02-15T10:59:17;8.75;;;5.30;;
61572;SDS011;47465;43.094;12.434;2024-02-15T11:01:45;10.27;;;5.88;;
61572;SDS011;47465;43.094;12.434;2024-02-15T11:04:17;10.50;;;5.80;;
61572;SDS011;47465;43.094;12.434;2024-02-15T11:06:47;11.93;;;5.82;;
61572;SDS011;47465;43.094;12.434;2024-02-15T11:09:16;15.15;;;6.78;;
61572;SDS011;47465;43.094;12.434;2024-02-15T11:11:43;11.55;;;6.85;;
61572;SDS011;47465;43.094;12.434;2024-02-15T11:14:27;11.73;;;6.55;;
61572;SDS011;47465;43.094;12.434;2024-02-15T11:16:54;12.57;;;7.13;;
61572;SDS011;47465;43.094;12.434;2024-02-15T11:22:07;10.40;;;6.07;;
61572;SDS011;47465;43.094;12.434;2024-02-15T11:24:36;11.60;;;7.55;;
61572;SDS011;47465;43.094;12.434;2024-02-15T11:27:10;10.63;;;6.43;;
61572;SDS011;47465;43.094;12.434;2024-02-15T11:29:50;12.18;;;6.95;;
61572;SDS011;47465;43.094;12.434;2024-02-15T11:32:36;14.25;;;7.38;;
61572;SDS011;47465;43.094;12.434;2024-02-15T11:35:05;11.60;;;6.97;;
61572;SDS011;47465;43.094;12.434;2024-02-15T11:37:49;14.50;;;7.50;;
61572;SDS011;47465;43.094;12.434;2024-02-15T11:40:24;11.40;;;7.13;;
61572;SDS011;47465;43.094;12.434;2024-02-15T11:42:53;12.25;;;7.00;;
61572;SDS011;47465;43.094;12.434;2024-02-15T11:45:21;11.93;;;6.97;;
61572;SDS011;47465;43.094;12.434;2024-02-15T11:47:48;11.18;;;6.30;;
61572;SDS011;47465;43.094;12.434;2024-02-15T11:50:15;11.65;;;6.68;;
61572;SDS011;47465;43.094;12.434;2024-02-15T11:52:43;13.57;;;6.57;;
61572;SDS011;47465;43.094;12.434;2024-02-15T11:55:09;13.35;;;6.70;;
61572;SDS011;47465;43.094;12.434;2024-02-15T11:57:37;14.75;;;6.40;;
61572;SDS011;47465;43.094;12.434;2024-02-15T12:00:24;11.38;;;6.22;;
61572;SDS011;47465;43.094;12.434;2024-02-15T12:03:24;11.77;;;8.13;;
61572;SDS011;47465;43.094;12.434;2024-02-15T12:06:33;14.63;;;6.38;;
61572;SDS011;47465;43.094;12.434;2024-02-15T12:09:33;13.25;;;6.32;;
61572;SDS011;47465;43.094;12.434;2024-02-15T12:12:33;12.50;;;6.45;;
61572;SDS011;47465;43.094;12.434;2024-02-15T12:15:35;12.70;;;6.25;;
61572;SDS011;47465;43.094;12.434;2024-02-15T12:18:40;14.15;;;6.28;;
61572;SDS011;47465;43.094;12.434;2024-02-15T12:21:19;14.85;;;6.75;;
61572;SDS011;47465;43.094;12.434;2024-02-15T12:23:50;11.70;;;6.80;;
61572;SDS011;47465;43.094;12.434;2024-02-15T12:26:18;11.75;;;6.38;;
61572;SDS011;47465;43.094;12.434;2024-02-15T12:28:44;11.65;;;5.93;;
61572;SDS011;47465;43.094;12.434;2024-02-15T12:31:16;9.30;;;5.13;;
61572;SDS011;47465;43.094;12.434;2024-02-15T12:33:46;11.50;;;6.22;;
61572;SDS011;47465;43.094;12.434;2024-02-15T12:36:23;12.52;;;5.70;;
61572;SDS011;47465;43.094;12.434;2024-02-15T12:38:58;12.13;;;6.18;;
61572;SDS011;47465;43.094;12.434;2024-02-15T12:41:24;10.32;;;6.03;;
61572;SDS011;47465;43.094;12.434;2024-02-15T12:43:52;11.15;;;6.45;;
61572;SDS011;47465;43.094;12.434;2024-02-15T12:46:18;8.85;;;5.35;;
61572;SDS011;47465;43.094;12.434;2024-02-15T12:48:44;15.68;;;5.85;;
61572;SDS011;47465;43.094;12.434;2024-02-15T12:51:15;13.23;;;6.85;;
61572;SDS011;47465;43.094;12.434;2024-02-15T12:53:41;10.88;;;6.05;;
61572;SDS011;47465;43.094;12.434;2024-02-15T12:56:08;11.07;;;5.80;;
61572;SDS011;47465;43.094;12.434;2024-02-15T12:58:38;11.43;;;6.35;;
61572;SDS011;47465;43.094;12.434;2024-02-15T13:01:04;10.73;;;6.25;;
61572;SDS011;47465;43.094;12.434;2024-02-15T13:03:35;9.63;;;5.85;;
61572;SDS011;47465;43.094;12.434;2024-02-15T13:06:03;11.43;;;6.63;;
61572;SDS011;47465;43.094;12.434;2024-02-15T13:08:30;10.02;;;6.70;;
61572;SDS011;47465;43.094;12.434;2024-02-15T13:10:57;9.55;;;6.25;;
61572;SDS011;47465;43.094;12.434;2024-02-15T13:13:23;9.20;;;5.68;;
61572;SDS011;47465;43.094;12.434;2024-02-15T13:15:50;10.60;;;5.72;;
61572;SDS011;47465;43.094;12.434;2024-02-15T13:18:20;8.02;;;5.25;;
61572;SDS011;47465;43.094;12.434;2024-02-15T13:20:47;12.18;;;5.05;;
61572;SDS011;47465;43.094;12.434;2024-02-15T13:23:20;10.98;;;5.97;;
61572;SDS011;47465;43.094;12.434;2024-02-15T13:25:48;14.02;;;6.20;;
61572;SDS011;47465;43.094;12.434;2024-02-15T13:28:15;13.35;;;5.95;;
61572;SDS011;47465;43.094;12.434;2024-02-15T13:30:42;9.15;;;5.60;;
61572;SDS011;47465;43.094;12.434;2024-02-15T13:33:10;7.95;;;5.07;;
61572;SDS011;47465;43.094;12.434;2024-02-15T13:35:36;8.48;;;6.15;;
61572;SDS011;47465;43.094;12.434;2024-02-15T13:38:03;7.63;;;4.93;;
61572;SDS011;47465;43.094;12.434;2024-02-15T13:40:32;9.60;;;4.63;;
61572;SDS011;47465;43.094;12.434;2024-02-15T13:43:01;11.02;;;5.07;;
61572;SDS011;47465;43.094;12.434;2024-02-15T13:45:31;8.98;;;4.70;;
61572;SDS011;47465;43.094;12.434;2024-02-15T13:47:59;8.45;;;4.18;;
61572;SDS011;47465;43.094;12.434;2024-02-15T13:50:28;9.20;;;4.30;;
61572;SDS011;47465;43.094;12.434;2024-02-15T13:52:55;9.50;;;4.00;;
61572;SDS011;47465;43.094;12.434;2024-02-15T13:55:24;6.07;;;3.95;;
61572;SDS011;47465;43.094;12.434;2024-02-15T13:57:52;9.23;;;4.18;;
61572;SDS011;47465;43.094;12.434;2024-02-15T14:00:24;8.43;;;4.60;;
61572;SDS011;47465;43.094;12.434;2024-02-15T14:02:57;7.35;;;4.28;;
61572;SDS011;47465;43.094;12.434;2024-02-15T14:05:27;6.38;;;4.00;;
61572;SDS011;47465;43.094;12.434;2024-02-15T14:07:54;7.38;;;4.15;;
61572;SDS011;47465;43.094;12.434;2024-02-15T14:10:21;7.40;;;4.15;;
61572;SDS011;47465;43.094;12.434;2024-02-15T14:12:48;6.80;;;4.45;;
61572;SDS011;47465;43.094;12.434;2024-02-15T14:15:16;6.10;;;3.80;;
61572;SDS011;47465;43.094;12.434;2024-02-15T14:17:42;7.45;;;4.00;;
61572;SDS011;47465;43.094;12.434;2024-02-15T14:20:09;6.22;;;3.63;;
61572;SDS011;47465;43.094;12.434;2024-02-15T14:22:40;6.22;;;3.63;;
61572;SDS011;47465;43.094;12.434;2024-02-15T14:25:06;8.02;;;3.78;;
61572;SDS011;47465;43.094;12.434;2024-02-15T14:27:33;8.65;;;3.90;;
61572;SDS011;47465;43.094;12.434;2024-02-15T14:29:59;6.18;;;3.33;;
61572;SDS011;47465;43.094;12.434;2024-02-15T14:33:05;6.65;;;3.35;;
61572;SDS011;47465;43.094;12.434;2024-02-15T14:35:36;6.68;;;3.97;;
61572;SDS011;47465;43.094;12.434;2024-02-15T14:38:08;6.30;;;3.42;;
61572;SDS011;47465;43.094;12.434;2024-02-15T14:40:36;7.28;;;3.35;;
61572;SDS011;47465;43.094;12.434;2024-02-15T14:43:04;6.78;;;3.40;;
61572;SDS011;47465;43.094;12.434;2024-02-15T14:45:31;6.50;;;3.55;;
61572;SDS011;47465;43.094;12.434;2024-02-15T14:47:57;8.45;;;3.33;;
61572;SDS011;47465;43.094;12.434;2024-02-15T14:50:25;5.18;;;2.97;;
61572;SDS011;47465;43.094;12.434;2024-02-15T14:52:51;6.82;;;3.20;;
61572;SDS011;47465;43.094;12.434;2024-02-15T14:55:18;7.57;;;3.15;;
61572;SDS011;47465;43.094;12.434;2024-02-15T14:57:44;6.20;;;2.92;;
61572;SDS011;47465;43.094;12.434;2024-02-15T15:00:11;5.43;;;2.83;;
61572;SDS011;47465;43.094;12.434;2024-02-15T15:02:40;7.75;;;3.17;;
61572;SDS011;47465;43.094;12.434;2024-02-15T15:05:07;5.68;;;2.53;;
61572;SDS011;47465;43.094;12.434;2024-02-15T15:18:34;8.90;;;3.60;;
61572;SDS011;47465;43.094;12.434;2024-02-15T15:21:00;8.38;;;3.55;;
61572;SDS011;47465;43.094;12.434;2024-02-15T15:23:27;6.68;;;3.38;;